sensor_id;sensor_type;location;lat;lon;timestamp;pressure;altitude;pressure_sealevel;temperature;humidity
24762;BME280;12865;51.934;10.330;2023-07-20T00:02:38;98829.38;;;16.37;100.00
24762;BME280;12865;51.934;10.330;2023-07-20T00:05:23;98834.28;;;16.33;100.00
24762;BME280;12865;51.934;10.330;2023-07-20T00:08:10;98838.53;;;16.28;100.00
24762;BME280;12865;51.934;10.330;2023-07-20T00:10:56;98827.69;;;16.21;100.00
24762;BME280;12865;51.934;10.330;2023-07-20T00:13:41;98823.50;;;16.33;100.00
24762;BME280;12865;51.934;10.330;2023-07-20T00:16:27;98824.16;;;16.21;100.00
24762;BME280;12865;51.934;10.330;2023-07-20T00:19:13;98821.47;;;16.35;100.00
24762;BME280;12865;51.934;10.330;2023-07-20T00:21:58;98812.66;;;16.41;100.00
24762;BME280;12865;51.934;10.330;2023-07-20T00:24:44;98819.13;;;16.47;100.00
24762;BME280;12865;51.934;10.330;2023-07-20T00:27:30;98817.09;;;16.49;100.00
24762;BME280;12865;51.934;10.330;2023-07-20T00:30:16;98823.59;;;16.55;100.00
24762;BME280;12865;51.934;10.330;2023-07-20T00:33:01;98833.44;;;16.62;100.00
24762;BME280;12865;51.934;10.330;2023-07-20T00:35:47;98819.78;;;16.49;100.00
24762;BME280;12865;51.934;10.330;2023-07-20T00:38:33;98813.22;;;16.52;100.00
24762;BME280;12865;51.934;10.330;2023-07-20T00:41:18;98818.03;;;16.56;100.00
24762;BME280;12865;51.934;10.330;2023-07-20T00:44:04;98816.47;;;16.62;100.00
24762;BME280;12865;51.934;10.330;2023-07-20T00:46:51;98815.91;;;16.52;100.00
24762;BME280;12865;51.934;10.330;2023-07-20T00:49:37;98807.66;;;16.53;100.00
24762;BME280;12865;51.934;10.330;2023-07-20T00:52:23;98806.81;;;16.53;100.00
24762;BME280;12865;51.934;10.330;2023-07-20T00:55:10;98810.13;;;16.55;100.00
24762;BME280;12865;51.934;10.330;2023-07-20T00:57:56;98814.22;;;16.50;100.00
24762;BME280;12865;51.934;10.330;2023-07-20T01:00:42;98819.03;;;16.55;100.00
24762;BME280;12865;51.934;10.330;2023-07-20T01:03:28;98816.47;;;16.62;100.00
24762;BME280;12865;51.934;10.330;2023-07-20T01:06:29;98818.97;;;16.63;100.00
24762;BME280;12865;51.934;10.330;2023-07-20T01:09:26;98816.34;;;16.70;100.00
24762;BME280;12865;51.934;10.330;2023-07-20T01:12:35;98815.25;;;16.64;100.00
24762;BME280;12865;51.934;10.330;2023-07-20T01:15:26;98812.22;;;16.67;100.00
24762;BME280;12865;51.934;10.330;2023-07-20T01:18:11;98812.06;;;16.75;100.00
24762;BME280;12865;51.934;10.330;2023-07-20T01:21:06;98822.41;;;16.72;100.00
24762;BME280;12865;51.934;10.330;2023-07-20T01:24:17;98814.69;;;16.69;100.00
24762;BME280;12865;51.934;10.330;2023-07-20T01:32:59;98814.50;;;16.56;100.00
24762;BME280;12865;51.934;10.330;2023-07-20T01:35:50;98812.75;;;16.63;100.00
24762;BME280;12865;51.934;10.330;2023-07-20T01:38:37;98816.47;;;16.62;100.00
24762;BME280;12865;51.934;10.330;2023-07-20T01:41:23;98812.66;;;16.71;100.00
24762;BME280;12865;51.934;10.330;2023-07-20T01:44:08;98816.09;;;16.65;100.00
24762;BME280;12865;51.934;10.330;2023-07-20T01:46:54;98814.25;;;16.65;100.00
24762;BME280;12865;51.934;10.330;2023-07-20T01:49:40;98819.81;;;16.64;100.00
24762;BME280;12865;51.934;10.330;2023-07-20T01:52:26;98825.19;;;16.64;100.00
24762;BME280;12865;51.934;10.330;2023-07-20T01:55:12;98821.66;;;16.63;100.00
24762;BME280;12865;51.934;10.330;2023-07-20T01:57:57;98817.28;;;16.62;100.00
24762;BME280;12865;51.934;10.330;2023-07-20T02:00:45;98820.66;;;16.64;100.00
24762;BME280;12865;51.934;10.330;2023-07-20T02:03:31;98828.97;;;16.69;100.00
24762;BME280;12865;51.934;10.330;2023-07-20T02:06:17;98824.25;;;16.71;100.00
24762;BME280;12865;51.934;10.330;2023-07-20T02:09:03;98829.63;;;16.71;100.00
24762;BME280;12865;51.934;10.330;2023-07-20T02:11:48;98820.47;;;16.66;100.00
24762;BME280;12865;51.934;10.330;2023-07-20T02:14:35;98828.53;;;16.66;100.00
24762;BME280;12865;51.934;10.330;2023-07-20T02:17:21;98831.78;;;16.61;100.00
24762;BME280;12865;51.934;10.330;2023-07-20T02:20:07;98822.91;;;16.61;100.00
24762;BME280;12865;51.934;10.330;2023-07-20T02:22:56;98818.84;;;16.57;100.00
24762;BME280;12865;51.934;10.330;2023-07-20T02:25:42;98820.88;;;16.55;100.00
24762;BME280;12865;51.934;10.330;2023-07-20T02:28:27;98813.56;;;16.48;100.00
24762;BME280;12865;51.934;10.330;2023-07-20T02:31:14;98815.06;;;16.51;100.00
24762;BME280;12865;51.934;10.330;2023-07-20T02:34:00;98814.06;;;16.52;100.00
24762;BME280;12865;51.934;10.330;2023-07-20T02:36:45;98819.44;;;16.52;100.00
24762;BME280;12865;51.934;10.330;2023-07-20T02:39:31;98814.41;;;16.49;100.00
24762;BME280;12865;51.934;10.330;2023-07-20T02:42:17;98824.50;;;16.47;100.00
24762;BME280;12865;51.934;10.330;2023-07-20T02:45:03;98815.81;;;16.45;100.00
24762;BME280;12865;51.934;10.330;2023-07-20T02:47:49;98828.63;;;16.43;100.00
24762;BME280;12865;51.934;10.330;2023-07-20T02:50:35;98831.50;;;16.41;100.00
24762;BME280;12865;51.934;10.330;2023-07-20T02:53:22;98822.03;;;16.45;100.00
24762;BME280;12865;51.934;10.330;2023-07-20T02:56:07;98833.72;;;16.53;100.00
24762;BME280;12865;51.934;10.330;2023-07-20T02:58:53;98824.34;;;16.48;100.00
24762;BME280;12865;51.934;10.330;2023-07-20T03:01:39;98819.72;;;16.42;100.00
24762;BME280;12865;51.934;10.330;2023-07-20T03:04:27;98813.66;;;16.55;100.00
24762;BME280;12865;51.934;10.330;2023-07-20T03:07:13;98812.75;;;16.63;100.00
24762;BME280;12865;51.934;10.330;2023-07-20T03:09:59;98813.28;;;16.58;100.00
24762;BME280;12865;51.934;10.330;2023-07-20T03:12:44;98817.94;;;16.49;100.00
24762;BME280;12865;51.934;10.330;2023-07-20T03:15:30;98816.19;;;16.42;100.00
24762;BME280;12865;51.934;10.330;2023-07-20T03:18:16;98826.50;;;16.38;100.00
24762;BME280;12865;51.934;10.330;2023-07-20T03:21:02;98820.28;;;16.38;100.00
24762;BME280;12865;51.934;10.330;2023-07-20T03:23:47;98827.03;;;16.34;100.00
24762;BME280;12865;51.934;10.330;2023-07-20T03:26:33;98833.63;;;16.31;100.00
24762;BME280;12865;51.934;10.330;2023-07-20T03:29:19;98835.31;;;16.32;100.00
24762;BME280;12865;51.934;10.330;2023-07-20T03:32:05;98838.00;;;16.32;100.00
24762;BME280;12865;51.934;10.330;2023-07-20T03:34:50;98828.16;;;16.39;100.00
24762;BME280;12865;51.934;10.330;2023-07-20T03:37:36;98833.56;;;16.39;100.00
24762;BME280;12865;51.934;10.330;2023-07-20T03:40:23;98832.72;;;16.39;100.00
24762;BME280;12865;51.934;10.330;2023-07-20T03:43:09;98831.97;;;16.45;100.00
24762;BME280;12865;51.934;10.330;2023-07-20T03:45:55;98831.88;;;16.38;100.00
24762;BME280;12865;51.934;10.330;2023-07-20T03:48:42;98826.84;;;16.35;100.00
24762;BME280;12865;51.934;10.330;2023-07-20T03:51:27;98826.59;;;16.30;100.00
24762;BME280;12865;51.934;10.330;2023-07-20T03:54:13;98818.88;;;16.27;100.00
24762;BME280;12865;51.934;10.330;2023-07-20T03:56:59;98828.72;;;16.20;100.00
24762;BME280;12865;51.934;10.330;2023-07-20T03:59:46;98830.66;;;16.12;100.00
24762;BME280;12865;51.934;10.330;2023-07-20T04:02:32;98819.78;;;16.05;100.00
24762;BME280;12865;51.934;10.330;2023-07-20T04:05:17;98825.81;;;16.07;100.00
24762;BME280;12865;51.934;10.330;2023-07-20T04:08:03;98824.91;;;16.15;100.00
24762;BME280;12865;51.934;10.330;2023-07-20T04:10:49;98812.13;;;16.17;100.00
24762;BME280;12865;51.934;10.330;2023-07-20T04:13:35;98829.72;;;16.19;100.00
24762;BME280;12865;51.934;10.330;2023-07-20T04:16:21;98830.84;;;16.25;100.00
24762;BME280;12865;51.934;10.330;2023-07-20T04:19:06;98827.16;;;16.26;100.00
24762;BME280;12865;51.934;10.330;2023-07-20T04:21:52;98832.63;;;16.32;100.00
24762;BME280;12865;51.934;10.330;2023-07-20T04:24:38;98829.19;;;16.38;100.00
24762;BME280;12865;51.934;10.330;2023-07-20T04:27:23;98826.75;;;16.43;100.00
24762;BME280;12865;51.934;10.330;2023-07-20T04:30:10;98832.81;;;16.45;100.00
24762;BME280;12865;51.934;10.330;2023-07-20T04:32:57;98828.69;;;16.49;100.00
24762;BME280;12865;51.934;10.330;2023-07-20T04:38:31;98833.72;;;16.53;100.00
24762;BME280;12865;51.934;10.330;2023-07-20T04:41:17;98834.00;;;16.58;100.00
24762;BME280;12865;51.934;10.330;2023-07-20T04:44:02;98832.63;;;16.62;100.00
24762;BME280;12865;51.934;10.330;2023-07-20T04:46:48;98830.22;;;16.67;100.00
24762;BME280;12865;51.934;10.330;2023-07-20T04:49:34;98830.00;;;16.68;100.00
24762;BME280;12865;51.934;10.330;2023-07-20T04:52:20;98828.03;;;16.77;100.00
24762;BME280;12865;51.934;10.330;2023-07-20T04:55:05;98830.72;;;16.77;100.00
24762;BME280;12865;51.934;10.330;2023-07-20T04:57:51;98823.31;;;16.79;100.00
24762;BME280;12865;51.934;10.330;2023-07-20T05:00:38;98829.22;;;16.89;100.00
24762;BME280;12865;51.934;10.330;2023-07-20T05:03:23;98840.81;;;16.89;100.00
24762;BME280;12865;51.934;10.330;2023-07-20T05:06:09;98831.28;;;16.87;100.00
24762;BME280;12865;51.934;10.330;2023-07-20T05:08:54;98835.06;;;16.93;100.00
24762;BME280;12865;51.934;10.330;2023-07-20T05:11:40;98825.03;;;17.01;100.00
24762;BME280;12865;51.934;10.330;2023-07-20T05:14:26;98829.38;;;17.02;100.00
24762;BME280;12865;51.934;10.330;2023-07-20T05:17:11;98843.16;;;16.93;100.00
24762;BME280;12865;51.934;10.330;2023-07-20T05:19:57;98841.72;;;16.97;100.00
24762;BME280;12865;51.934;10.330;2023-07-20T05:22:43;98832.19;;;16.94;100.00
24762;BME280;12865;51.934;10.330;2023-07-20T05:25:29;98834.88;;;16.94;100.00
24762;BME280;12865;51.934;10.330;2023-07-20T05:28:14;98830.25;;;16.88;100.00
24762;BME280;12865;51.934;10.330;2023-07-20T05:31:03;98829.88;;;16.91;100.00
24762;BME280;12865;51.934;10.330;2023-07-20T05:33:49;98831.78;;;16.97;100.00
24762;BME280;12865;51.934;10.330;2023-07-20T05:36:34;98834.31;;;16.99;100.00
24762;BME280;12865;51.934;10.330;2023-07-20T05:39:20;98837.41;;;16.96;100.00
24762;BME280;12865;51.934;10.330;2023-07-20T05:42:06;98839.25;;;16.95;100.00
24762;BME280;12865;51.934;10.330;2023-07-20T05:44:51;98841.72;;;16.97;100.00
24762;BME280;12865;51.934;10.330;2023-07-20T05:47:38;98837.28;;;16.68;100.00
24762;BME280;12865;51.934;10.330;2023-07-20T05:50:24;98838.91;;;16.69;100.00
24762;BME280;12865;51.934;10.330;2023-07-20T05:53:09;98848.81;;;15.95;100.00
24762;BME280;12865;51.934;10.330;2023-07-20T05:55:55;98853.06;;;15.89;100.00
24762;BME280;12865;51.934;10.330;2023-07-20T05:58:41;98864.25;;;15.32;100.00
24762;BME280;12865;51.934;10.330;2023-07-20T06:01:26;98877.19;;;15.29;100.00
24762;BME280;12865;51.934;10.330;2023-07-20T06:04:14;98879.22;;;15.04;100.00
24762;BME280;12865;51.934;10.330;2023-07-20T06:06:59;98890.47;;;15.00;100.00
24762;BME280;12865;51.934;10.330;2023-07-20T06:09:45;98894.53;;;14.87;100.00
24762;BME280;12865;51.934;10.330;2023-07-20T06:12:31;98893.75;;;14.79;100.00
24762;BME280;12865;51.934;10.330;2023-07-20T06:15:30;98882.56;;;14.67;100.00
24762;BME280;12865;51.934;10.330;2023-07-20T06:18:17;98883.19;;;14.85;100.00
24762;BME280;12865;51.934;10.330;2023-07-20T06:21:03;98883.81;;;14.87;100.00
24762;BME280;12865;51.934;10.330;2023-07-20T06:23:48;98883.69;;;14.81;100.00
24762;BME280;12865;51.934;10.330;2023-07-20T06:26:34;98885.25;;;14.67;100.00
24762;BME280;12865;51.934;10.330;2023-07-20T06:29:24;98892.28;;;14.68;100.00
24762;BME280;12865;51.934;10.330;2023-07-20T06:32:10;98892.97;;;14.70;100.00
24762;BME280;12865;51.934;10.330;2023-07-20T06:34:56;98902.03;;;14.69;100.00
24762;BME280;12865;51.934;10.330;2023-07-20T06:37:41;98900.00;;;14.71;100.00
24762;BME280;12865;51.934;10.330;2023-07-20T06:40:27;98909.69;;;14.80;100.00
24762;BME280;12865;51.934;10.330;2023-07-20T06:43:13;98903.44;;;14.88;100.00
24762;BME280;12865;51.934;10.330;2023-07-20T06:45:58;98899.91;;;14.87;100.00
24762;BME280;12865;51.934;10.330;2023-07-20T06:48:44;98902.88;;;15.01;100.00
24762;BME280;12865;51.934;10.330;2023-07-20T06:51:30;98911.56;;;15.11;100.00
24762;BME280;12865;51.934;10.330;2023-07-20T06:54:16;98913.50;;;15.25;100.00
24762;BME280;12865;51.934;10.330;2023-07-20T06:57:01;98918.88;;;15.25;100.00
24762;BME280;12865;51.934;10.330;2023-07-20T06:59:47;98920.56;;;15.18;100.00
24762;BME280;12865;51.934;10.330;2023-07-20T07:02:33;98920.16;;;15.29;100.00
24762;BME280;12865;51.934;10.330;2023-07-20T07:05:19;98927.84;;;15.40;100.00
24762;BME280;12865;51.934;10.330;2023-07-20T07:08:05;98928.13;;;15.45;100.00
24762;BME280;12865;51.934;10.330;2023-07-20T07:10:52;98928.97;;;15.54;100.00
24762;BME280;12865;51.934;10.330;2023-07-20T07:13:37;98935.41;;;15.67;100.00
24762;BME280;12865;51.934;10.330;2023-07-20T07:16:23;98933.66;;;15.75;100.00
24762;BME280;12865;51.934;10.330;2023-07-20T07:19:09;98943.34;;;15.61;100.00
24762;BME280;12865;51.934;10.330;2023-07-20T07:21:54;98943.19;;;15.62;100.00
24762;BME280;12865;51.934;10.330;2023-07-20T07:24:40;98941.03;;;15.50;100.00
24762;BME280;12865;51.934;10.330;2023-07-20T07:27:29;98941.38;;;15.55;100.00
24762;BME280;12865;51.934;10.330;2023-07-20T07:30:14;98938.94;;;15.37;100.00
24762;BME280;12865;51.934;10.330;2023-07-20T07:33:00;98938.22;;;15.43;100.00
24762;BME280;12865;51.934;10.330;2023-07-20T07:35:46;98940.13;;;15.35;100.00
24762;BME280;12865;51.934;10.330;2023-07-20T07:38:32;98938.94;;;15.37;100.00
24762;BME280;12865;51.934;10.330;2023-07-20T07:41:17;98942.63;;;15.36;100.00
24762;BME280;12865;51.934;10.330;2023-07-20T07:44:03;98953.59;;;15.26;100.00
24762;BME280;12865;51.934;10.330;2023-07-20T07:46:49;98958.19;;;15.18;100.00
24762;BME280;12865;51.934;10.330;2023-07-20T07:49:35;98959.22;;;15.09;100.00
24762;BME280;12865;51.934;10.330;2023-07-20T07:52:21;98958.50;;;15.15;100.00
24762;BME280;12865;51.934;10.330;2023-07-20T07:55:07;98964.22;;;15.20;100.00
24762;BME280;12865;51.934;10.330;2023-07-20T07:57:52;98963.84;;;15.23;100.00
24762;BME280;12865;51.934;10.330;2023-07-20T08:00:38;98963.13;;;15.29;100.00
24762;BME280;12865;51.934;10.330;2023-07-20T08:03:24;98956.41;;;15.33;100.00
24762;BME280;12865;51.934;10.330;2023-07-20T08:06:09;98957.66;;;15.53;100.00
24762;BME280;12865;51.934;10.330;2023-07-20T08:08:55;98962.94;;;15.69;100.00
24762;BME280;12865;51.934;10.330;2023-07-20T08:11:41;98967.72;;;15.82;100.00
24762;BME280;12865;51.934;10.330;2023-07-20T08:14:27;98966.28;;;15.94;100.00
24762;BME280;12865;51.934;10.330;2023-07-20T08:17:12;98959.63;;;16.05;100.00
24762;BME280;12865;51.934;10.330;2023-07-20T08:19:58;98966.88;;;16.04;100.00
24762;BME280;12865;51.934;10.330;2023-07-20T08:22:44;98966.44;;;15.93;100.00
24762;BME280;12865;51.934;10.330;2023-07-20T08:25:29;98969.47;;;15.98;100.00
24762;BME280;12865;51.934;10.330;2023-07-20T08:28:15;98978.75;;;16.10;100.00
24762;BME280;12865;51.934;10.330;2023-07-20T08:31:01;98974.06;;;16.27;100.00
24762;BME280;12865;51.934;10.330;2023-07-20T08:33:48;98978.06;;;16.31;100.00
24762;BME280;12865;51.934;10.330;2023-07-20T08:36:34;98983.28;;;16.32;100.00
24762;BME280;12865;51.934;10.330;2023-07-20T08:39:19;98985.66;;;16.27;100.00
24762;BME280;12865;51.934;10.330;2023-07-20T08:42:07;98987.34;;;16.05;100.00
24762;BME280;12865;51.934;10.330;2023-07-20T08:44:54;98990.53;;;16.09;100.00
24762;BME280;12865;51.934;10.330;2023-07-20T08:47:42;98987.97;;;15.93;100.00
24762;BME280;12865;51.934;10.330;2023-07-20T08:50:30;98992.09;;;15.81;100.00
24762;BME280;12865;51.934;10.330;2023-07-20T08:53:16;98996.84;;;15.70;100.00
24762;BME280;12865;51.934;10.330;2023-07-20T08:56:02;99001.41;;;15.93;100.00
24762;BME280;12865;51.934;10.330;2023-07-20T08:58:49;98998.59;;;16.09;100.00
24762;BME280;12865;51.934;10.330;2023-07-20T09:01:39;98996.00;;;16.38;100.00
24762;BME280;12865;51.934;10.330;2023-07-20T09:04:24;98987.13;;;16.53;100.00
24762;BME280;12865;51.934;10.330;2023-07-20T09:07:11;98993.69;;;16.73;100.00
24762;BME280;12865;51.934;10.330;2023-07-20T09:09:57;98994.09;;;16.62;100.00
24762;BME280;12865;51.934;10.330;2023-07-20T09:12:44;99002.72;;;16.57;100.00
24762;BME280;12865;51.934;10.330;2023-07-20T09:15:30;98997.28;;;16.65;100.00
24762;BME280;12865;51.934;10.330;2023-07-20T09:18:29;98999.44;;;16.99;100.00
24762;BME280;12865;51.934;10.330;2023-07-20T09:21:16;99003.38;;;17.62;100.00
24762;BME280;12865;51.934;10.330;2023-07-20T09:24:02;99000.00;;;17.96;100.00
24762;BME280;12865;51.934;10.330;2023-07-20T09:26:48;99000.47;;;17.99;98.38
24762;BME280;12865;51.934;10.330;2023-07-20T09:29:47;99008.44;;;18.08;97.90
24762;BME280;12865;51.934;10.330;2023-07-20T09:32:38;99003.34;;;17.98;95.79
24762;BME280;12865;51.934;10.330;2023-07-20T09:35:25;99008.88;;;18.11;100.00
24762;BME280;12865;51.934;10.330;2023-07-20T09:38:11;99017.09;;;18.03;98.15
24762;BME280;12865;51.934;10.330;2023-07-20T09:40:57;99019.34;;;18.21;96.61
24762;BME280;12865;51.934;10.330;2023-07-20T09:43:42;99016.53;;;18.78;93.71
24762;BME280;12865;51.934;10.330;2023-07-20T09:46:41;99010.28;;;19.12;90.57
24762;BME280;12865;51.934;10.330;2023-07-20T09:49:27;99011.00;;;18.93;88.51
24762;BME280;12865;51.934;10.330;2023-07-20T09:52:13;99014.28;;;19.22;91.37
24762;BME280;12865;51.934;10.330;2023-07-20T09:54:59;99015.97;;;19.71;88.95
24762;BME280;12865;51.934;10.330;2023-07-20T09:57:46;99010.84;;;19.96;90.25
24762;BME280;12865;51.934;10.330;2023-07-20T10:00:35;99011.28;;;20.19;90.11
24762;BME280;12865;51.934;10.330;2023-07-20T10:03:22;99014.63;;;20.21;80.89
24762;BME280;12865;51.934;10.330;2023-07-20T10:06:10;99015.28;;;20.30;82.56
24762;BME280;12865;51.934;10.330;2023-07-20T10:09:01;99007.72;;;19.92;86.81
24762;BME280;12865;51.934;10.330;2023-07-20T10:11:53;99009.78;;;19.84;81.75
24762;BME280;12865;51.934;10.330;2023-07-20T10:14:42;99007.94;;;19.43;80.95
24762;BME280;12865;51.934;10.330;2023-07-20T10:17:30;99012.31;;;19.44;80.42
24762;BME280;12865;51.934;10.330;2023-07-20T10:20:17;99010.56;;;19.23;85.69
24762;BME280;12865;51.934;10.330;2023-07-20T10:23:05;99008.88;;;19.22;87.25
24762;BME280;12865;51.934;10.330;2023-07-20T10:25:52;99010.13;;;19.61;85.09
24762;BME280;12865;51.934;10.330;2023-07-20T10:28:39;99008.69;;;19.65;81.71
24762;BME280;12865;51.934;10.330;2023-07-20T10:31:25;99009.16;;;19.75;81.46
24762;BME280;12865;51.934;10.330;2023-07-20T10:34:14;99010.72;;;19.56;78.33
24762;BME280;12865;51.934;10.330;2023-07-20T10:37:00;98999.59;;;19.99;79.76
24762;BME280;12865;51.934;10.330;2023-07-20T10:39:45;98998.34;;;19.88;77.82
24762;BME280;12865;51.934;10.330;2023-07-20T10:42:33;99002.13;;;20.27;74.43
24762;BME280;12865;51.934;10.330;2023-07-20T10:45:19;99005.28;;;20.17;76.03
24762;BME280;12865;51.934;10.330;2023-07-20T10:48:05;99006.78;;;20.46;76.52
24762;BME280;12865;51.934;10.330;2023-07-20T10:51:22;99006.56;;;20.48;68.59
24762;BME280;12865;51.934;10.330;2023-07-20T10:57:24;98998.19;;;20.89;69.36
24762;BME280;12865;51.934;10.330;2023-07-20T11:00:14;98993.59;;;21.02;69.24
24762;BME280;12865;51.934;10.330;2023-07-20T11:03:00;98992.94;;;21.13;66.45
24762;BME280;12865;51.934;10.330;2023-07-20T11:05:45;98991.91;;;21.01;67.31
24762;BME280;12865;51.934;10.330;2023-07-20T11:08:41;98998.78;;;20.97;68.36
24762;BME280;12865;51.934;10.330;2023-07-20T11:11:29;98992.63;;;21.48;63.38
24762;BME280;12865;51.934;10.330;2023-07-20T11:14:25;98999.25;;;21.59;62.41
24762;BME280;12865;51.934;10.330;2023-07-20T11:17:15;98992.81;;;21.46;57.97
24762;BME280;12865;51.934;10.330;2023-07-20T11:20:02;98994.28;;;21.87;57.53
24762;BME280;12865;51.934;10.330;2023-07-20T11:22:48;98997.56;;;22.02;54.35
24762;BME280;12865;51.934;10.330;2023-07-20T11:25:39;98996.38;;;21.47;51.57
24762;BME280;12865;51.934;10.330;2023-07-20T11:28:24;98998.78;;;21.68;52.51
24762;BME280;12865;51.934;10.330;2023-07-20T11:31:13;98997.81;;;21.56;52.25
24762;BME280;12865;51.934;10.330;2023-07-20T11:33:59;98999.66;;;21.62;52.05
24762;BME280;12865;51.934;10.330;2023-07-20T11:36:50;98998.00;;;21.54;53.76
24762;BME280;12865;51.934;10.330;2023-07-20T11:39:36;99000.94;;;21.53;56.93
24762;BME280;12865;51.934;10.330;2023-07-20T11:42:21;98997.31;;;21.66;58.32
24762;BME280;12865;51.934;10.330;2023-07-20T11:45:08;98993.38;;;22.06;53.96
24762;BME280;12865;51.934;10.330;2023-07-20T11:47:58;98985.00;;;22.08;54.84
24762;BME280;12865;51.934;10.330;2023-07-20T11:50:44;98984.00;;;21.95;52.02
24762;BME280;12865;51.934;10.330;2023-07-20T11:53:30;98984.72;;;22.47;51.14
24762;BME280;12865;51.934;10.330;2023-07-20T11:56:15;98982.41;;;22.76;51.17
24762;BME280;12865;51.934;10.330;2023-07-20T11:59:01;98979.16;;;22.85;51.50
24762;BME280;12865;51.934;10.330;2023-07-20T12:01:48;98970.81;;;23.05;52.06
24762;BME280;12865;51.934;10.330;2023-07-20T12:04:34;98971.91;;;22.54;51.75
24762;BME280;12865;51.934;10.330;2023-07-20T12:07:19;98982.31;;;22.57;52.48
24762;BME280;12865;51.934;10.330;2023-07-20T12:10:12;98984.91;;;22.77;51.11
24762;BME280;12865;51.934;10.330;2023-07-20T12:13:01;98985.34;;;22.18;49.79
24762;BME280;12865;51.934;10.330;2023-07-20T12:15:49;98978.81;;;22.25;50.91
24762;BME280;12865;51.934;10.330;2023-07-20T12:18:35;98983.25;;;22.20;52.40
24762;BME280;12865;51.934;10.330;2023-07-20T12:21:21;98983.00;;;22.28;51.51
24762;BME280;12865;51.934;10.330;2023-07-20T12:24:07;98979.94;;;22.67;50.61
24762;BME280;12865;51.934;10.330;2023-07-20T12:26:58;98978.28;;;23.09;49.42
24762;BME280;12865;51.934;10.330;2023-07-20T12:29:43;98967.69;;;23.56;50.71
24762;BME280;12865;51.934;10.330;2023-07-20T12:32:29;98975.50;;;23.82;49.06
24762;BME280;12865;51.934;10.330;2023-07-20T12:35:15;98971.38;;;23.92;45.29
24762;BME280;12865;51.934;10.330;2023-07-20T12:38:01;98973.41;;;23.66;47.04
24762;BME280;12865;51.934;10.330;2023-07-20T12:40:47;98974.19;;;23.19;46.49
24762;BME280;12865;51.934;10.330;2023-07-20T12:43:33;98970.59;;;23.73;46.55
24762;BME280;12865;51.934;10.330;2023-07-20T12:46:19;98958.78;;;23.79;45.76
24762;BME280;12865;51.934;10.330;2023-07-20T12:49:05;98973.34;;;23.36;45.90
24762;BME280;12865;51.934;10.330;2023-07-20T12:51:50;98966.72;;;22.96;47.74
24762;BME280;12865;51.934;10.330;2023-07-20T12:54:36;98969.34;;;22.59;48.79
24762;BME280;12865;51.934;10.330;2023-07-20T12:57:22;98966.25;;;22.56;50.12
24762;BME280;12865;51.934;10.330;2023-07-20T13:00:09;98967.16;;;22.43;48.18
24762;BME280;12865;51.934;10.330;2023-07-20T13:02:55;98969.41;;;22.78;47.14
24762;BME280;12865;51.934;10.330;2023-07-20T13:05:41;98971.00;;;23.22;47.51
24762;BME280;12865;51.934;10.330;2023-07-20T13:08:27;98968.66;;;23.07;46.53
24762;BME280;12865;51.934;10.330;2023-07-20T13:11:13;98957.94;;;23.30;47.90
24762;BME280;12865;51.934;10.330;2023-07-20T13:13:58;98972.44;;;23.42;48.11
24762;BME280;12865;51.934;10.330;2023-07-20T13:16:44;98969.34;;;22.84;50.33
24762;BME280;12865;51.934;10.330;2023-07-20T13:19:29;98969.94;;;22.61;48.94
24762;BME280;12865;51.934;10.330;2023-07-20T13:22:15;98962.31;;;22.27;49.94
24762;BME280;12865;51.934;10.330;2023-07-20T13:25:01;98968.84;;;22.44;51.02
24762;BME280;12865;51.934;10.330;2023-07-20T13:27:47;98969.31;;;22.10;50.75
24762;BME280;12865;51.934;10.330;2023-07-20T13:30:33;98963.97;;;22.71;50.33
24762;BME280;12865;51.934;10.330;2023-07-20T13:33:19;98964.06;;;22.64;49.25
24762;BME280;12865;51.934;10.330;2023-07-20T13:36:05;98963.38;;;22.76;47.24
24762;BME280;12865;51.934;10.330;2023-07-20T13:38:51;98955.91;;;22.64;48.78
24762;BME280;12865;51.934;10.330;2023-07-20T13:41:36;98959.38;;;22.71;47.40
24762;BME280;12865;51.934;10.330;2023-07-20T13:44:23;98962.19;;;22.15;48.18
24762;BME280;12865;51.934;10.330;2023-07-20T13:47:08;98968.84;;;22.19;48.28
24762;BME280;12865;51.934;10.330;2023-07-20T13:49:54;98964.34;;;22.31;48.38
24762;BME280;12865;51.934;10.330;2023-07-20T13:52:40;98954.59;;;21.99;47.85
24762;BME280;12865;51.934;10.330;2023-07-20T13:55:26;98963.19;;;22.21;48.79
24762;BME280;12865;51.934;10.330;2023-07-20T13:58:13;98959.09;;;22.12;48.22
24762;BME280;12865;51.934;10.330;2023-07-20T14:00:58;98957.53;;;22.22;48.44
24762;BME280;12865;51.934;10.330;2023-07-20T14:03:44;98953.53;;;22.50;48.45
24762;BME280;12865;51.934;10.330;2023-07-20T14:06:31;98953.91;;;22.35;48.55
24762;BME280;12865;51.934;10.330;2023-07-20T14:09:17;98957.00;;;22.14;48.82
24762;BME280;12865;51.934;10.330;2023-07-20T14:12:03;98955.19;;;22.01;48.76
24762;BME280;12865;51.934;10.330;2023-07-20T14:14:49;98951.00;;;22.05;51.52
24762;BME280;12865;51.934;10.330;2023-07-20T14:17:34;98956.38;;;22.12;49.24
24762;BME280;12865;51.934;10.330;2023-07-20T14:20:20;98954.03;;;21.84;50.36
24762;BME280;12865;51.934;10.330;2023-07-20T14:23:06;98956.31;;;21.80;50.83
24762;BME280;12865;51.934;10.330;2023-07-20T14:25:52;98955.75;;;22.10;49.52
24762;BME280;12865;51.934;10.330;2023-07-20T14:28:37;98951.81;;;22.30;47.92
24762;BME280;12865;51.934;10.330;2023-07-20T14:31:23;98960.84;;;22.24;49.51
24762;BME280;12865;51.934;10.330;2023-07-20T14:34:09;98952.38;;;22.39;49.57
24762;BME280;12865;51.934;10.330;2023-07-20T14:36:55;98949.00;;;22.19;50.04